HECAHEAX

Guest
Details From HECA - Cairo Intl
To HEAX - Alexandria Intl
Flight Number -
Tags Generated
Created
Modified
Stats Distance 98 nm / 182 km
Max Altitude 0 ft / 0 m
Waypoints 2
Social Downloads 9
Likes 0
Share VATSIM

Download

Looking for another format? Having issues loading an existing format? Contact us
Advertisement - Login to hide

Notes

Generated

Route

HECA HEAX

ID Type Via Altitude Latitude Longitude Leg Dist Tot Dist Heading (true) Name
O HECA APT - 0 ft / 0 m 30.13821˚ 31.40615˚ - 0 nm - -
O HEAX APT - 0 ft / 0 m 31.19388˚ 29.94890˚ 98 nm 98 nm 310° / 310° -

Altitude Profile

Advertisement - Login to hide

HECA

Details ICAO HECA (CAI)
Name Cairo Intl
Region Egypt
Timezone Africa/Cairo (UTC+2.0)
Stats Elevation 382 ft / 116 m (AMSL)
Location 30.121808° 31.406095°
Runways 3
Magnetic Variation 4.403° E

METAR

HECA 120900Z 28005KT 2000 HZ NSC 19/10 Q1019 NOSIG

Decode

TAF

TAF TAF HECA 120900Z 1209/1312 24007KT 30010KT 9999 FEW025 TEMPO 1209/1212 4000 HZ TEMPO 1209/1211 2000

Decode

Departure Runways

ID Width Length Bearing (true) Bearing (mag) Surface Threshold Offset Overrun Length
05L 197 ft / 60 m 10,833 ft / 3,302 m 49.29° 44.89° Asphalt 0 ft / 0 m 185 ft / 56 m
05R 197 ft / 60 m 13,126 ft / 4,001 m 49.03° 44.63° Asphalt 0 ft / 0 m 216 ft / 66 m
16 197 ft / 60 m 10,456 ft / 3,187 m 162.61° 158.21° Asphalt 0 ft / 0 m 125 ft / 38 m
23L 197 ft / 60 m 13,126 ft / 4,001 m 229.05° 224.65° Asphalt 0 ft / 0 m 225 ft / 69 m
23R 197 ft / 60 m 10,833 ft / 3,302 m 229.30° 224.90° Asphalt 0 ft / 0 m 185 ft / 56 m
34 197 ft / 60 m 10,456 ft / 3,187 m 342.61° 338.21° Asphalt 0 ft / 0 m 195 ft / 59 m

HEAX

Details ICAO HEAX (ALY)
Name ALEXANDRIA INTL
Region Egypt
Timezone Africa/Cairo (UTC+2.0)
Stats Elevation -6 ft / -2 m (AMSL)
Location 31.183715° 29.947602°
Runways 2
Magnetic Variation 4.420° E

METAR

HEAX 120800Z 03008KT 6000 SCT020 SCT200 21/16 Q1020 NOSIG

Decode

TAF

TAF HEAX 120517Z 1206/1312 35010KT 9999 SCT020= TAF HEBA 120517Z 1206/1312 35010KT 9999 SCT020

Decode

Destination Runways

ID Width Length Bearing (true) Bearing (mag) Surface Threshold Offset Overrun Length
04 148 ft / 45 m 7,225 ft / 2,202 m 44.92° 40.50° Asphalt 0 ft / 0 m 230 ft / 70 m
18 98 ft / 30 m 5,927 ft / 1,807 m 179.99° 175.57° Asphalt 0 ft / 0 m 198 ft / 60 m
22 148 ft / 45 m 7,225 ft / 2,202 m 224.93° 220.51° Asphalt 0 ft / 0 m 268 ft / 82 m
36 98 ft / 30 m 5,927 ft / 1,807 m 359.99° 355.57° Asphalt 0 ft / 0 m 375 ft / 114 m

Popular Alternatives